Terminal Aerodrome Forecast
Issued by NWS Duluth, MN

Home | Current Version | Previous Version | Text Only | Print | Product List | Glossary On
Versions: 1 2 3 4 5 6 7 8 9 10 11 12 13 14 15 16 17 18 19 20 21 22 23 24 25 26 27 28 29 30 31 32 33 34 35 36
000
FTUS43 KDLH 081131
TAFDLH
TAF
KDLH 081131Z 0812/0912 32011KT P6SM -SN OVC025
      TEMPO 0812/0814 5SM -SHSN OVC015
     FM081400 32012G18KT 5SM -SHSN OVC018
     FM081800 32012G20KT P6SM VCSH OVC020
     FM090200 31010KT P6SM VCSH SCT016 OVC025=

USA.gov is the U.S. government's official web portal to all federal, state and local government web resources and services.